sensor_id;sensor_type;location;lat;lon;timestamp;P1;durP1;ratioP1;P2;durP2;ratioP2
19193;SDS011;9729;52.296;13.260;2022-08-11T00:01:37;6.57;;;2.93;;
19193;SDS011;9729;52.296;13.260;2022-08-11T00:04:11;9.97;;;2.27;;
19193;SDS011;9729;52.296;13.260;2022-08-11T00:06:39;4.90;;;2.30;;
19193;SDS011;9729;52.296;13.260;2022-08-11T00:09:08;10.00;;;2.90;;
19193;SDS011;9729;52.296;13.260;2022-08-11T00:11:36;2.60;;;2.07;;
19193;SDS011;9729;52.296;13.260;2022-08-11T00:16:52;12.70;;;2.80;;
19193;SDS011;9729;52.296;13.260;2022-08-11T00:19:21;7.60;;;2.97;;
19193;SDS011;9729;52.296;13.260;2022-08-11T00:21:49;6.80;;;2.60;;
19193;SDS011;9729;52.296;13.260;2022-08-11T00:24:17;8.33;;;2.80;;
19193;SDS011;9729;52.296;13.260;2022-08-11T00:26:48;3.87;;;2.40;;
19193;SDS011;9729;52.296;13.260;2022-08-11T00:29:16;10.63;;;2.60;;
19193;SDS011;9729;52.296;13.260;2022-08-11T00:31:44;4.57;;;2.20;;
19193;SDS011;9729;52.296;13.260;2022-08-11T00:34:13;7.93;;;2.73;;
19193;SDS011;9729;52.296;13.260;2022-08-11T00:36:44;5.43;;;2.47;;
19193;SDS011;9729;52.296;13.260;2022-08-11T00:39:13;4.03;;;2.03;;
19193;SDS011;9729;52.296;13.260;2022-08-11T00:41:41;5.37;;;2.63;;
19193;SDS011;9729;52.296;13.260;2022-08-11T00:44:21;5.00;;;2.60;;
19193;SDS011;9729;52.296;13.260;2022-08-11T00:46:56;4.50;;;2.50;;
19193;SDS011;9729;52.296;13.260;2022-08-11T00:49:38;9.07;;;2.40;;
19193;SDS011;9729;52.296;13.260;2022-08-11T00:52:15;6.03;;;3.20;;
19193;SDS011;9729;52.296;13.260;2022-08-11T00:54:56;4.07;;;2.53;;
19193;SDS011;9729;52.296;13.260;2022-08-11T01:00:19;3.50;;;2.50;;
19193;SDS011;9729;52.296;13.260;2022-08-11T01:02:54;8.03;;;2.50;;
19193;SDS011;9729;52.296;13.260;2022-08-11T01:05:37;4.30;;;2.50;;
19193;SDS011;9729;52.296;13.260;2022-08-11T01:08:32;2.50;;;2.30;;
19193;SDS011;9729;52.296;13.260;2022-08-11T01:11:31;9.83;;;2.57;;
19193;SDS011;9729;52.296;13.260;2022-08-11T01:14:12;11.30;;;2.50;;
19193;SDS011;9729;52.296;13.260;2022-08-11T01:16:55;4.97;;;2.57;;
19193;SDS011;9729;52.296;13.260;2022-08-11T01:19:39;8.13;;;3.73;;
19193;SDS011;9729;52.296;13.260;2022-08-11T01:22:46;3.97;;;2.77;;
19193;SDS011;9729;52.296;13.260;2022-08-11T01:25:40;4.73;;;2.80;;
19193;SDS011;9729;52.296;13.260;2022-08-11T01:29:03;8.00;;;2.60;;
19193;SDS011;9729;52.296;13.260;2022-08-11T01:32:00;7.53;;;3.23;;
19193;SDS011;9729;52.296;13.260;2022-08-11T01:38:10;8.70;;;3.27;;
19193;SDS011;9729;52.296;13.260;2022-08-11T01:40:56;5.67;;;2.63;;
19193;SDS011;9729;52.296;13.260;2022-08-11T01:43:55;4.77;;;2.97;;
19193;SDS011;9729;52.296;13.260;2022-08-11T01:46:49;4.63;;;2.80;;
19193;SDS011;9729;52.296;13.260;2022-08-11T01:49:20;5.90;;;3.07;;
19193;SDS011;9729;52.296;13.260;2022-08-11T01:52:03;4.47;;;2.90;;
19193;SDS011;9729;52.296;13.260;2022-08-11T01:54:40;8.10;;;3.27;;
19193;SDS011;9729;52.296;13.260;2022-08-11T01:57:10;3.97;;;2.63;;
19193;SDS011;9729;52.296;13.260;2022-08-11T01:59:42;10.27;;;3.13;;
19193;SDS011;9729;52.296;13.260;2022-08-11T02:02:25;5.35;;;3.17;;
19193;SDS011;9729;52.296;13.260;2022-08-11T02:05:12;5.33;;;3.00;;
19193;SDS011;9729;52.296;13.260;2022-08-11T02:07:51;9.23;;;3.27;;
19193;SDS011;9729;52.296;13.260;2022-08-11T02:10:22;3.33;;;2.73;;
19193;SDS011;9729;52.296;13.260;2022-08-11T02:13:12;9.97;;;3.00;;
19193;SDS011;9729;52.296;13.260;2022-08-11T02:15:44;6.03;;;2.97;;
19193;SDS011;9729;52.296;13.260;2022-08-11T02:18:12;6.40;;;3.83;;
19193;SDS011;9729;52.296;13.260;2022-08-11T02:20:45;7.37;;;3.37;;
19193;SDS011;9729;52.296;13.260;2022-08-11T02:23:39;11.40;;;4.03;;
19193;SDS011;9729;52.296;13.260;2022-08-11T02:26:13;6.07;;;2.80;;
19193;SDS011;9729;52.296;13.260;2022-08-11T02:28:54;5.10;;;3.23;;
19193;SDS011;9729;52.296;13.260;2022-08-11T02:31:26;7.25;;;3.60;;
19193;SDS011;9729;52.296;13.260;2022-08-11T02:34:19;12.43;;;3.23;;
19193;SDS011;9729;52.296;13.260;2022-08-11T02:36:51;11.90;;;3.00;;
19193;SDS011;9729;52.296;13.260;2022-08-11T02:39:22;5.43;;;3.20;;
19193;SDS011;9729;52.296;13.260;2022-08-11T02:41:55;6.07;;;3.30;;
19193;SDS011;9729;52.296;13.260;2022-08-11T02:44:43;5.80;;;3.07;;
19193;SDS011;9729;52.296;13.260;2022-08-11T02:47:26;5.23;;;2.90;;
19193;SDS011;9729;52.296;13.260;2022-08-11T02:50:02;9.13;;;3.20;;
19193;SDS011;9729;52.296;13.260;2022-08-11T02:52:34;9.68;;;3.70;;
19193;SDS011;9729;52.296;13.260;2022-08-11T02:55:12;12.37;;;3.13;;
19193;SDS011;9729;52.296;13.260;2022-08-11T02:57:46;8.03;;;3.60;;
19193;SDS011;9729;52.296;13.260;2022-08-11T03:00:16;7.50;;;3.10;;
19193;SDS011;9729;52.296;13.260;2022-08-11T03:02:52;8.53;;;3.00;;
19193;SDS011;9729;52.296;13.260;2022-08-11T03:05:30;10.97;;;3.60;;
19193;SDS011;9729;52.296;13.260;2022-08-11T03:10:53;9.67;;;3.60;;
19193;SDS011;9729;52.296;13.260;2022-08-11T03:13:41;5.80;;;3.30;;
19193;SDS011;9729;52.296;13.260;2022-08-11T03:16:27;6.77;;;3.03;;
19193;SDS011;9729;52.296;13.260;2022-08-11T03:19:12;9.23;;;3.40;;
19193;SDS011;9729;52.296;13.260;2022-08-11T03:21:41;9.00;;;3.23;;
19193;SDS011;9729;52.296;13.260;2022-08-11T03:24:14;10.43;;;3.17;;
19193;SDS011;9729;52.296;13.260;2022-08-11T03:26:46;4.70;;;3.17;;
19193;SDS011;9729;52.296;13.260;2022-08-11T03:29:18;11.40;;;3.43;;
19193;SDS011;9729;52.296;13.260;2022-08-11T03:31:50;8.07;;;3.10;;
19193;SDS011;9729;52.296;13.260;2022-08-11T03:34:23;9.67;;;3.20;;
19193;SDS011;9729;52.296;13.260;2022-08-11T03:37:04;6.70;;;3.20;;
19193;SDS011;9729;52.296;13.260;2022-08-11T03:39:41;7.07;;;3.33;;
19193;SDS011;9729;52.296;13.260;2022-08-11T03:42:15;8.93;;;3.43;;
19193;SDS011;9729;52.296;13.260;2022-08-11T03:44:47;7.00;;;3.10;;
19193;SDS011;9729;52.296;13.260;2022-08-11T03:47:23;7.83;;;3.30;;
19193;SDS011;9729;52.296;13.260;2022-08-11T03:50:00;6.70;;;3.43;;
19193;SDS011;9729;52.296;13.260;2022-08-11T03:52:36;6.47;;;3.70;;
19193;SDS011;9729;52.296;13.260;2022-08-11T03:55:13;7.07;;;3.27;;
19193;SDS011;9729;52.296;13.260;2022-08-11T04:04:22;8.40;;;4.03;;
19193;SDS011;9729;52.296;13.260;2022-08-11T04:07:22;9.20;;;3.90;;
19193;SDS011;9729;52.296;13.260;2022-08-11T04:13:24;7.47;;;3.30;;
19193;SDS011;9729;52.296;13.260;2022-08-11T04:16:41;11.50;;;3.93;;
19193;SDS011;9729;52.296;13.260;2022-08-11T04:19:34;9.37;;;4.30;;
19193;SDS011;9729;52.296;13.260;2022-08-11T04:31:04;16.42;;;4.95;;
19193;SDS011;9729;52.296;13.260;2022-08-11T04:33:48;10.83;;;4.47;;
19193;SDS011;9729;52.296;13.260;2022-08-11T04:36:36;7.43;;;3.47;;
19193;SDS011;9729;52.296;13.260;2022-08-11T04:39:27;16.13;;;4.23;;
19193;SDS011;9729;52.296;13.260;2022-08-11T04:42:07;12.83;;;4.17;;
19193;SDS011;9729;52.296;13.260;2022-08-11T04:48:13;9.27;;;3.77;;
19193;SDS011;9729;52.296;13.260;2022-08-11T04:51:09;10.90;;;4.00;;
19193;SDS011;9729;52.296;13.260;2022-08-11T04:54:22;9.87;;;3.43;;
19193;SDS011;9729;52.296;13.260;2022-08-11T04:57:13;12.33;;;4.37;;
19193;SDS011;9729;52.296;13.260;2022-08-11T05:00:04;6.37;;;3.80;;
19193;SDS011;9729;52.296;13.260;2022-08-11T05:03:16;9.17;;;3.93;;
19193;SDS011;9729;52.296;13.260;2022-08-11T05:09:16;7.33;;;3.60;;
19193;SDS011;9729;52.296;13.260;2022-08-11T05:12:01;14.67;;;3.83;;
19193;SDS011;9729;52.296;13.260;2022-08-11T05:14:35;5.47;;;3.53;;
19193;SDS011;9729;52.296;13.260;2022-08-11T05:17:23;7.97;;;3.60;;
19193;SDS011;9729;52.296;13.260;2022-08-11T05:20:13;8.83;;;3.50;;
19193;SDS011;9729;52.296;13.260;2022-08-11T05:22:59;6.80;;;3.97;;
19193;SDS011;9729;52.296;13.260;2022-08-11T05:25:48;9.70;;;4.17;;
19193;SDS011;9729;52.296;13.260;2022-08-11T05:28:36;12.13;;;3.77;;
19193;SDS011;9729;52.296;13.260;2022-08-11T05:31:23;5.07;;;3.80;;
19193;SDS011;9729;52.296;13.260;2022-08-11T05:34:10;7.37;;;3.53;;
19193;SDS011;9729;52.296;13.260;2022-08-11T05:36:56;14.80;;;3.93;;
19193;SDS011;9729;52.296;13.260;2022-08-11T05:39:26;13.00;;;3.97;;
19193;SDS011;9729;52.296;13.260;2022-08-11T05:42:12;7.13;;;3.50;;
19193;SDS011;9729;52.296;13.260;2022-08-11T05:45:03;5.57;;;3.53;;
19193;SDS011;9729;52.296;13.260;2022-08-11T05:47:48;5.63;;;3.70;;
19193;SDS011;9729;52.296;13.260;2022-08-11T05:50:32;9.73;;;3.83;;
19193;SDS011;9729;52.296;13.260;2022-08-11T05:53:18;8.13;;;3.40;;
19193;SDS011;9729;52.296;13.260;2022-08-11T05:56:04;7.07;;;3.73;;
19193;SDS011;9729;52.296;13.260;2022-08-11T05:58:45;6.30;;;4.00;;
19193;SDS011;9729;52.296;13.260;2022-08-11T06:01:20;8.43;;;4.00;;
19193;SDS011;9729;52.296;13.260;2022-08-11T06:03:49;11.03;;;3.77;;
19193;SDS011;9729;52.296;13.260;2022-08-11T06:06:30;8.97;;;4.10;;
19193;SDS011;9729;52.296;13.260;2022-08-11T06:08:57;9.43;;;4.03;;
19193;SDS011;9729;52.296;13.260;2022-08-11T06:11:25;11.33;;;4.40;;
19193;SDS011;9729;52.296;13.260;2022-08-11T06:13:55;7.77;;;3.93;;
19193;SDS011;9729;52.296;13.260;2022-08-11T06:16:22;6.90;;;4.00;;
19193;SDS011;9729;52.296;13.260;2022-08-11T06:18:51;8.57;;;4.27;;
19193;SDS011;9729;52.296;13.260;2022-08-11T06:21:18;10.20;;;3.80;;
19193;SDS011;9729;52.296;13.260;2022-08-11T06:23:46;7.00;;;4.10;;
19193;SDS011;9729;52.296;13.260;2022-08-11T06:26:13;5.80;;;3.87;;
19193;SDS011;9729;52.296;13.260;2022-08-11T06:28:40;8.17;;;3.97;;
19193;SDS011;9729;52.296;13.260;2022-08-11T06:31:11;11.63;;;4.03;;
19193;SDS011;9729;52.296;13.260;2022-08-11T06:33:43;8.30;;;4.40;;
19193;SDS011;9729;52.296;13.260;2022-08-11T06:36:21;9.80;;;4.00;;
19193;SDS011;9729;52.296;13.260;2022-08-11T06:38:55;8.87;;;4.23;;
19193;SDS011;9729;52.296;13.260;2022-08-11T06:41:25;6.97;;;4.10;;
19193;SDS011;9729;52.296;13.260;2022-08-11T06:43:56;6.40;;;4.23;;
19193;SDS011;9729;52.296;13.260;2022-08-11T06:46:33;10.93;;;3.97;;
19193;SDS011;9729;52.296;13.260;2022-08-11T06:49:03;5.10;;;3.70;;
19193;SDS011;9729;52.296;13.260;2022-08-11T06:51:29;15.67;;;4.30;;
19193;SDS011;9729;52.296;13.260;2022-08-11T06:53:56;8.30;;;3.60;;
19193;SDS011;9729;52.296;13.260;2022-08-11T06:56:26;8.27;;;3.67;;
19193;SDS011;9729;52.296;13.260;2022-08-11T06:59:12;6.13;;;3.80;;
19193;SDS011;9729;52.296;13.260;2022-08-11T07:02:02;11.43;;;4.20;;
19193;SDS011;9729;52.296;13.260;2022-08-11T07:04:31;10.47;;;3.97;;
19193;SDS011;9729;52.296;13.260;2022-08-11T07:07:13;10.07;;;4.23;;
19193;SDS011;9729;52.296;13.260;2022-08-11T07:10:25;10.00;;;3.67;;
19193;SDS011;9729;52.296;13.260;2022-08-11T07:13:16;6.33;;;4.07;;
19193;SDS011;9729;52.296;13.260;2022-08-11T07:16:02;8.20;;;4.60;;
19193;SDS011;9729;52.296;13.260;2022-08-11T07:18:30;6.17;;;3.93;;
19193;SDS011;9729;52.296;13.260;2022-08-11T07:21:19;9.30;;;4.03;;
19193;SDS011;9729;52.296;13.260;2022-08-11T07:24:07;7.67;;;4.00;;
19193;SDS011;9729;52.296;13.260;2022-08-11T07:26:56;21.30;;;5.03;;
19193;SDS011;9729;52.296;13.260;2022-08-11T07:29:41;6.30;;;3.83;;
19193;SDS011;9729;52.296;13.260;2022-08-11T07:32:12;6.30;;;3.30;;
19193;SDS011;9729;52.296;13.260;2022-08-11T07:34:44;6.77;;;3.33;;
19193;SDS011;9729;52.296;13.260;2022-08-11T07:37:14;9.00;;;3.93;;
19193;SDS011;9729;52.296;13.260;2022-08-11T07:39:42;10.27;;;3.87;;
19193;SDS011;9729;52.296;13.260;2022-08-11T07:42:10;7.80;;;3.40;;
19193;SDS011;9729;52.296;13.260;2022-08-11T07:44:38;9.27;;;3.63;;
19193;SDS011;9729;52.296;13.260;2022-08-11T07:47:19;7.97;;;3.47;;
19193;SDS011;9729;52.296;13.260;2022-08-11T07:50:06;12.67;;;4.17;;
19193;SDS011;9729;52.296;13.260;2022-08-11T07:52:51;6.03;;;3.63;;
19193;SDS011;9729;52.296;13.260;2022-08-11T07:55:18;9.67;;;3.23;;
19193;SDS011;9729;52.296;13.260;2022-08-11T07:57:46;7.77;;;3.93;;
19193;SDS011;9729;52.296;13.260;2022-08-11T08:00:34;11.77;;;3.23;;
19193;SDS011;9729;52.296;13.260;2022-08-11T08:03:18;10.03;;;3.43;;
19193;SDS011;9729;52.296;13.260;2022-08-11T08:06:04;15.97;;;3.63;;
19193;SDS011;9729;52.296;13.260;2022-08-11T08:08:49;12.98;;;3.47;;
19193;SDS011;9729;52.296;13.260;2022-08-11T08:11:33;13.83;;;3.60;;
19193;SDS011;9729;52.296;13.260;2022-08-11T08:14:17;13.77;;;3.77;;
19193;SDS011;9729;52.296;13.260;2022-08-11T08:17:01;6.40;;;3.70;;
19193;SDS011;9729;52.296;13.260;2022-08-11T08:19:46;7.23;;;3.60;;
19193;SDS011;9729;52.296;13.260;2022-08-11T08:22:15;10.80;;;3.13;;
19193;SDS011;9729;52.296;13.260;2022-08-11T08:24:43;10.77;;;3.85;;
19193;SDS011;9729;52.296;13.260;2022-08-11T08:27:09;8.00;;;3.45;;
19193;SDS011;9729;52.296;13.260;2022-08-11T08:29:38;15.18;;;3.67;;
19193;SDS011;9729;52.296;13.260;2022-08-11T08:32:22;5.97;;;3.22;;
19193;SDS011;9729;52.296;13.260;2022-08-11T08:34:49;10.35;;;2.97;;
19193;SDS011;9729;52.296;13.260;2022-08-11T08:37:19;4.75;;;2.65;;
19193;SDS011;9729;52.296;13.260;2022-08-11T08:39:47;4.32;;;3.22;;
19193;SDS011;9729;52.296;13.260;2022-08-11T08:42:16;14.75;;;3.22;;
19193;SDS011;9729;52.296;13.260;2022-08-11T08:44:45;5.75;;;3.22;;
19193;SDS011;9729;52.296;13.260;2022-08-11T08:47:13;7.90;;;2.95;;
19193;SDS011;9729;52.296;13.260;2022-08-11T08:49:43;6.80;;;3.13;;
19193;SDS011;9729;52.296;13.260;2022-08-11T08:52:13;8.75;;;3.22;;
19193;SDS011;9729;52.296;13.260;2022-08-11T08:54:42;7.90;;;3.28;;
19193;SDS011;9729;52.296;13.260;2022-08-11T08:57:10;8.82;;;3.70;;
19193;SDS011;9729;52.296;13.260;2022-08-11T08:59:38;13.82;;;2.83;;
19193;SDS011;9729;52.296;13.260;2022-08-11T09:02:07;12.13;;;3.05;;
19193;SDS011;9729;52.296;13.260;2022-08-11T09:04:35;11.30;;;2.75;;
19193;SDS011;9729;52.296;13.260;2022-08-11T09:07:05;7.53;;;3.25;;
19193;SDS011;9729;52.296;13.260;2022-08-11T09:09:33;6.80;;;3.10;;
19193;SDS011;9729;52.296;13.260;2022-08-11T09:12:01;10.95;;;2.83;;
19193;SDS011;9729;52.296;13.260;2022-08-11T09:14:32;4.53;;;2.50;;
19193;SDS011;9729;52.296;13.260;2022-08-11T09:17:14;6.00;;;2.65;;
19193;SDS011;9729;52.296;13.260;2022-08-11T09:19:40;2.35;;;2.00;;
19193;SDS011;9729;52.296;13.260;2022-08-11T09:22:08;4.70;;;2.25;;
19193;SDS011;9729;52.296;13.260;2022-08-11T09:24:52;3.30;;;2.28;;
19193;SDS011;9729;52.296;13.260;2022-08-11T09:27:37;8.18;;;2.05;;
19193;SDS011;9729;52.296;13.260;2022-08-11T09:30:04;6.10;;;2.15;;
19193;SDS011;9729;52.296;13.260;2022-08-11T09:32:31;3.55;;;2.15;;
19193;SDS011;9729;52.296;13.260;2022-08-11T09:34:58;4.93;;;1.90;;
19193;SDS011;9729;52.296;13.260;2022-08-11T09:37:27;2.17;;;1.98;;
19193;SDS011;9729;52.296;13.260;2022-08-11T09:40:12;6.63;;;2.65;;
19193;SDS011;9729;52.296;13.260;2022-08-11T09:42:55;6.15;;;2.45;;
19193;SDS011;9729;52.296;13.260;2022-08-11T09:45:40;3.75;;;2.33;;
19193;SDS011;9729;52.296;13.260;2022-08-11T09:48:10;3.65;;;2.22;;
19193;SDS011;9729;52.296;13.260;2022-08-11T09:50:36;4.47;;;2.00;;
19193;SDS011;9729;52.296;13.260;2022-08-11T09:53:04;4.38;;;2.03;;
19193;SDS011;9729;52.296;13.260;2022-08-11T09:55:30;5.70;;;2.47;;
19193;SDS011;9729;52.296;13.260;2022-08-11T09:57:59;5.00;;;2.63;;
19193;SDS011;9729;52.296;13.260;2022-08-11T10:00:41;3.45;;;2.22;;
19193;SDS011;9729;52.296;13.260;2022-08-11T10:03:09;5.43;;;2.45;;
19193;SDS011;9729;52.296;13.260;2022-08-11T10:05:37;3.60;;;2.45;;
19193;SDS011;9729;52.296;13.260;2022-08-11T10:08:22;7.95;;;2.42;;
19193;SDS011;9729;52.296;13.260;2022-08-11T10:10:52;3.08;;;1.92;;
19193;SDS011;9729;52.296;13.260;2022-08-11T10:13:25;3.45;;;1.83;;
19193;SDS011;9729;52.296;13.260;2022-08-11T10:15:55;2.83;;;1.75;;
19193;SDS011;9729;52.296;13.260;2022-08-11T10:18:33;4.90;;;1.90;;
19193;SDS011;9729;52.296;13.260;2022-08-11T10:21:13;4.25;;;2.40;;
19193;SDS011;9729;52.296;13.260;2022-08-11T10:23:42;5.35;;;2.33;;
19193;SDS011;9729;52.296;13.260;2022-08-11T10:26:27;3.75;;;2.00;;
19193;SDS011;9729;52.296;13.260;2022-08-11T10:29:15;5.75;;;2.50;;
19193;SDS011;9729;52.296;13.260;2022-08-11T10:31:59;5.57;;;2.47;;
19193;SDS011;9729;52.296;13.260;2022-08-11T10:34:44;11.05;;;2.40;;
19193;SDS011;9729;52.296;13.260;2022-08-11T10:37:12;3.25;;;1.85;;
19193;SDS011;9729;52.296;13.260;2022-08-11T10:39:40;4.32;;;2.03;;
19193;SDS011;9729;52.296;13.260;2022-08-11T10:42:06;5.72;;;2.15;;
19193;SDS011;9729;52.296;13.260;2022-08-11T10:44:52;6.63;;;2.53;;
19193;SDS011;9729;52.296;13.260;2022-08-11T10:47:22;4.35;;;2.05;;
19193;SDS011;9729;52.296;13.260;2022-08-11T10:50:03;3.20;;;1.98;;
19193;SDS011;9729;52.296;13.260;2022-08-11T10:52:51;4.18;;;1.95;;
19193;SDS011;9729;52.296;13.260;2022-08-11T10:55:36;7.90;;;2.17;;
19193;SDS011;9729;52.296;13.260;2022-08-11T10:58:21;2.35;;;1.90;;
19193;SDS011;9729;52.296;13.260;2022-08-11T11:01:07;7.32;;;2.05;;
19193;SDS011;9729;52.296;13.260;2022-08-11T11:03:34;2.80;;;2.30;;
19193;SDS011;9729;52.296;13.260;2022-08-11T11:06:03;3.50;;;1.73;;
19193;SDS011;9729;52.296;13.260;2022-08-11T11:08:35;5.03;;;1.88;;
19193;SDS011;9729;52.296;13.260;2022-08-11T11:11:17;4.88;;;2.60;;
19193;SDS011;9729;52.296;13.260;2022-08-11T11:13:46;4.47;;;2.00;;
19193;SDS011;9729;52.296;13.260;2022-08-11T11:16:33;6.22;;;2.17;;
19193;SDS011;9729;52.296;13.260;2022-08-11T11:19:19;3.95;;;2.15;;
19193;SDS011;9729;52.296;13.260;2022-08-11T11:21:49;5.05;;;2.28;;
19193;SDS011;9729;52.296;13.260;2022-08-11T11:24:20;8.93;;;2.55;;
19193;SDS011;9729;52.296;13.260;2022-08-11T11:26:51;4.32;;;2.47;;
19193;SDS011;9729;52.296;13.260;2022-08-11T11:32:17;6.50;;;2.30;;
19193;SDS011;9729;52.296;13.260;2022-08-11T11:34:56;5.00;;;2.53;;
19193;SDS011;9729;52.296;13.260;2022-08-11T11:37:28;4.93;;;2.40;;
19193;SDS011;9729;52.296;13.260;2022-08-11T11:39:55;5.47;;;2.88;;
19193;SDS011;9729;52.296;13.260;2022-08-11T11:42:22;3.03;;;2.20;;
19193;SDS011;9729;52.296;13.260;2022-08-11T11:44:48;5.80;;;2.47;;
19193;SDS011;9729;52.296;13.260;2022-08-11T11:47:16;10.23;;;3.75;;
19193;SDS011;9729;52.296;13.260;2022-08-11T11:49:44;4.13;;;2.10;;
19193;SDS011;9729;52.296;13.260;2022-08-11T11:52:12;5.90;;;2.20;;
19193;SDS011;9729;52.296;13.260;2022-08-11T11:54:41;7.22;;;2.45;;
19193;SDS011;9729;52.296;13.260;2022-08-11T11:57:08;6.68;;;2.22;;
19193;SDS011;9729;52.296;13.260;2022-08-11T11:59:49;6.55;;;2.17;;
19193;SDS011;9729;52.296;13.260;2022-08-11T12:02:35;4.07;;;2.60;;
19193;SDS011;9729;52.296;13.260;2022-08-11T12:05:03;3.00;;;2.20;;
19193;SDS011;9729;52.296;13.260;2022-08-11T12:07:30;5.75;;;2.28;;
19193;SDS011;9729;52.296;13.260;2022-08-11T12:10:15;5.07;;;2.15;;
19193;SDS011;9729;52.296;13.260;2022-08-11T12:12:42;5.55;;;2.15;;
19193;SDS011;9729;52.296;13.260;2022-08-11T12:15:26;6.15;;;2.78;;
19193;SDS011;9729;52.296;13.260;2022-08-11T12:17:55;1.98;;;1.73;;
19193;SDS011;9729;52.296;13.260;2022-08-11T12:20:21;5.38;;;2.50;;
19193;SDS011;9729;52.296;13.260;2022-08-11T12:22:48;3.22;;;2.08;;
19193;SDS011;9729;52.296;13.260;2022-08-11T12:25:33;3.17;;;2.20;;
19193;SDS011;9729;52.296;13.260;2022-08-11T12:28:23;5.93;;;3.08;;
19193;SDS011;9729;52.296;13.260;2022-08-11T12:30:49;6.30;;;2.08;;
19193;SDS011;9729;52.296;13.260;2022-08-11T12:33:19;3.45;;;2.15;;
19193;SDS011;9729;52.296;13.260;2022-08-11T12:35:45;6.25;;;2.63;;
19193;SDS011;9729;52.296;13.260;2022-08-11T12:38:13;3.97;;;2.45;;
19193;SDS011;9729;52.296;13.260;2022-08-11T12:40:41;3.33;;;2.35;;
19193;SDS011;9729;52.296;13.260;2022-08-11T12:43:26;5.07;;;2.47;;
19193;SDS011;9729;52.296;13.260;2022-08-11T12:46:15;3.67;;;1.90;;
19193;SDS011;9729;52.296;13.260;2022-08-11T12:48:46;4.45;;;2.20;;
19193;SDS011;9729;52.296;13.260;2022-08-11T12:51:32;3.45;;;2.10;;
19193;SDS011;9729;52.296;13.260;2022-08-11T12:54:26;2.40;;;1.83;;
19193;SDS011;9729;52.296;13.260;2022-08-11T12:56:56;5.50;;;2.50;;
19193;SDS011;9729;52.296;13.260;2022-08-11T12:59:42;6.03;;;2.47;;
19193;SDS011;9729;52.296;13.260;2022-08-11T13:02:26;4.90;;;2.17;;
19193;SDS011;9729;52.296;13.260;2022-08-11T13:05:12;5.88;;;2.30;;
19193;SDS011;9729;52.296;13.260;2022-08-11T13:07:39;9.82;;;2.88;;
19193;SDS011;9729;52.296;13.260;2022-08-11T13:10:07;6.53;;;2.13;;
19193;SDS011;9729;52.296;13.260;2022-08-11T13:12:35;9.27;;;2.55;;
19193;SDS011;9729;52.296;13.260;2022-08-11T13:15:14;4.25;;;2.30;;
19193;SDS011;9729;52.296;13.260;2022-08-11T13:17:41;4.20;;;2.25;;
19193;SDS011;9729;52.296;13.260;2022-08-11T13:20:09;8.43;;;2.28;;
19193;SDS011;9729;52.296;13.260;2022-08-11T13:22:38;9.32;;;2.40;;
19193;SDS011;9729;52.296;13.260;2022-08-11T13:25:05;5.53;;;2.70;;
19193;SDS011;9729;52.296;13.260;2022-08-11T13:27:32;2.67;;;1.90;;
19193;SDS011;9729;52.296;13.260;2022-08-11T13:30:00;4.15;;;2.05;;
19193;SDS011;9729;52.296;13.260;2022-08-11T13:32:45;8.25;;;2.22;;
19193;SDS011;9729;52.296;13.260;2022-08-11T13:35:12;4.68;;;2.20;;
19193;SDS011;9729;52.296;13.260;2022-08-11T13:37:41;2.70;;;2.08;;
19193;SDS011;9729;52.296;13.260;2022-08-11T13:40:10;3.47;;;2.13;;
19193;SDS011;9729;52.296;13.260;2022-08-11T13:42:38;3.25;;;2.00;;
19193;SDS011;9729;52.296;13.260;2022-08-11T13:45:06;5.60;;;2.42;;
19193;SDS011;9729;52.296;13.260;2022-08-11T13:47:33;7.57;;;2.17;;
19193;SDS011;9729;52.296;13.260;2022-08-11T13:49:59;9.07;;;2.35;;
19193;SDS011;9729;52.296;13.260;2022-08-11T13:52:26;4.25;;;1.90;;
19193;SDS011;9729;52.296;13.260;2022-08-11T13:54:54;3.53;;;2.25;;
19193;SDS011;9729;52.296;13.260;2022-08-11T13:57:21;4.25;;;2.40;;
19193;SDS011;9729;52.296;13.260;2022-08-11T13:59:51;9.02;;;2.50;;
19193;SDS011;9729;52.296;13.260;2022-08-11T14:02:20;3.38;;;2.28;;
19193;SDS011;9729;52.296;13.260;2022-08-11T14:04:51;8.52;;;1.90;;
19193;SDS011;9729;52.296;13.260;2022-08-11T14:07:20;4.78;;;2.53;;
19193;SDS011;9729;52.296;13.260;2022-08-11T14:09:50;5.55;;;2.53;;
19193;SDS011;9729;52.296;13.260;2022-08-11T14:12:22;3.70;;;1.73;;
19193;SDS011;9729;52.296;13.260;2022-08-11T14:15:09;4.35;;;1.98;;
19193;SDS011;9729;52.296;13.260;2022-08-11T14:17:40;3.08;;;1.85;;
19193;SDS011;9729;52.296;13.260;2022-08-11T14:20:08;3.05;;;1.95;;
19193;SDS011;9729;52.296;13.260;2022-08-11T14:22:35;6.07;;;2.33;;
19193;SDS011;9729;52.296;13.260;2022-08-11T14:25:03;3.60;;;2.13;;
19193;SDS011;9729;52.296;13.260;2022-08-11T14:27:32;6.50;;;2.55;;
19193;SDS011;9729;52.296;13.260;2022-08-11T14:29:58;6.18;;;1.83;;
19193;SDS011;9729;52.296;13.260;2022-08-11T14:32:26;4.97;;;2.15;;
19193;SDS011;9729;52.296;13.260;2022-08-11T14:34:52;3.00;;;1.58;;
19193;SDS011;9729;52.296;13.260;2022-08-11T14:37:19;2.83;;;1.58;;
19193;SDS011;9729;52.296;13.260;2022-08-11T14:39:47;6.30;;;1.92;;
19193;SDS011;9729;52.296;13.260;2022-08-11T14:42:17;14.95;;;2.42;;
19193;SDS011;9729;52.296;13.260;2022-08-11T14:45:03;5.60;;;1.58;;
19193;SDS011;9729;52.296;13.260;2022-08-11T14:47:55;4.45;;;1.45;;
19193;SDS011;9729;52.296;13.260;2022-08-11T14:50:30;3.47;;;1.90;;
19193;SDS011;9729;52.296;13.260;2022-08-11T14:52:58;3.78;;;2.15;;
19193;SDS011;9729;52.296;13.260;2022-08-11T14:55:26;4.32;;;1.40;;
19193;SDS011;9729;52.296;13.260;2022-08-11T14:58:13;8.00;;;1.95;;
19193;SDS011;9729;52.296;13.260;2022-08-11T15:00:43;1.58;;;1.42;;
19193;SDS011;9729;52.296;13.260;2022-08-11T15:03:10;3.33;;;1.80;;
19193;SDS011;9729;52.296;13.260;2022-08-11T15:05:37;5.47;;;1.70;;
19193;SDS011;9729;52.296;13.260;2022-08-11T15:08:05;2.95;;;1.58;;
19193;SDS011;9729;52.296;13.260;2022-08-11T15:10:33;2.28;;;1.70;;
19193;SDS011;9729;52.296;13.260;2022-08-11T15:13:00;7.93;;;2.22;;
19193;SDS011;9729;52.296;13.260;2022-08-11T15:15:27;3.35;;;1.30;;
19193;SDS011;9729;52.296;13.260;2022-08-11T15:18:13;5.45;;;1.55;;
19193;SDS011;9729;52.296;13.260;2022-08-11T15:20:41;6.30;;;1.80;;
19193;SDS011;9729;52.296;13.260;2022-08-11T15:23:25;5.03;;;1.40;;
19193;SDS011;9729;52.296;13.260;2022-08-11T15:26:10;4.43;;;1.25;;
19193;SDS011;9729;52.296;13.260;2022-08-11T15:28:39;1.77;;;1.63;;
19193;SDS011;9729;52.296;13.260;2022-08-11T15:31:26;6.75;;;1.38;;
19193;SDS011;9729;52.296;13.260;2022-08-11T15:34:13;2.75;;;1.40;;
19193;SDS011;9729;52.296;13.260;2022-08-11T15:37:01;7.45;;;1.50;;
19193;SDS011;9729;52.296;13.260;2022-08-11T15:39:47;2.58;;;1.30;;
19193;SDS011;9729;52.296;13.260;2022-08-11T15:42:33;3.10;;;1.20;;
19193;SDS011;9729;52.296;13.260;2022-08-11T15:45:19;7.05;;;1.77;;
19193;SDS011;9729;52.296;13.260;2022-08-11T15:48:05;6.03;;;1.30;;
19193;SDS011;9729;52.296;13.260;2022-08-11T15:50:36;3.70;;;1.40;;
19193;SDS011;9729;52.296;13.260;2022-08-11T15:53:05;3.15;;;1.20;;
19193;SDS011;9729;52.296;13.260;2022-08-11T15:55:34;5.55;;;1.25;;
19193;SDS011;9729;52.296;13.260;2022-08-11T15:58:01;10.98;;;1.63;;
19193;SDS011;9729;52.296;13.260;2022-08-11T16:00:46;2.92;;;1.40;;
19193;SDS011;9729;52.296;13.260;2022-08-11T16:03:34;1.98;;;1.10;;
19193;SDS011;9729;52.296;13.260;2022-08-11T16:06:26;2.63;;;1.27;;
19193;SDS011;9729;52.296;13.260;2022-08-11T16:08:53;11.48;;;1.80;;
19193;SDS011;9729;52.296;13.260;2022-08-11T16:11:22;3.90;;;1.52;;
19193;SDS011;9729;52.296;13.260;2022-08-11T16:13:48;3.30;;;1.48;;
19193;SDS011;9729;52.296;13.260;2022-08-11T16:16:34;1.20;;;1.00;;
19193;SDS011;9729;52.296;13.260;2022-08-11T16:19:03;2.95;;;1.60;;
19193;SDS011;9729;52.296;13.260;2022-08-11T16:21:35;5.55;;;1.85;;